createdAt,value
2022-09-06T00:00:22.826Z,0
2022-09-06T00:05:24.911Z,0.88715
2022-09-06T00:10:26.936Z,0
2022-09-06T00:15:28.883Z,0
2022-09-06T00:20:30.761Z,0.88715
2022-09-06T00:25:32.737Z,0.88715
2022-09-06T00:30:34.510Z,0.88715
2022-09-06T00:35:36.378Z,0.88715
2022-09-06T00:40:38.632Z,0
2022-09-06T00:45:40.614Z,0
2022-09-06T00:50:42.495Z,0
2022-09-06T00:55:44.925Z,0
2022-09-06T01:00:46.791Z,0
2022-09-06T01:05:52.686Z,0
2022-09-06T01:10:56.173Z,0
2022-09-06T01:15:58.494Z,0
2022-09-06T01:21:00.217Z,0.88715
2022-09-06T01:26:01.877Z,0.88715
2022-09-06T01:31:03.669Z,0.88715
2022-09-06T01:36:05.164Z,0
2022-09-06T01:41:06.828Z,0.88715
2022-09-06T01:46:08.689Z,0
2022-09-06T01:51:10.358Z,0
2022-09-06T01:56:12.443Z,0
2022-09-06T02:01:14.264Z,0.88715
2022-09-06T02:06:16.096Z,0
2022-09-06T02:11:17.936Z,0.88715
2022-09-06T02:16:19.803Z,0
2022-09-06T02:21:21.794Z,0.88715
2022-09-06T02:26:24.046Z,0.88715
2022-09-06T02:31:25.711Z,0
2022-09-06T02:36:27.466Z,0
2022-09-06T02:41:29.478Z,0
2022-09-06T02:46:31.412Z,0.88715
2022-09-06T02:51:33.526Z,0
2022-09-06T02:56:35.753Z,0
2022-09-06T03:01:37.698Z,0.88715
2022-09-06T03:06:39.664Z,0.88715
2022-09-06T03:11:41.434Z,0
2022-09-06T03:16:43.453Z,0.88715
2022-09-06T03:21:45.478Z,0.88715
2022-09-06T03:26:47.804Z,0.88715
2022-09-06T03:31:49.686Z,0
2022-09-06T03:36:51.647Z,0
2022-09-06T03:41:53.633Z,0.88715
2022-09-06T03:46:55.077Z,0.88715
2022-09-06T03:51:56.981Z,0.88715
2022-09-06T03:56:59.021Z,1.16185
2022-09-06T04:02:00.813Z,1.53075
2022-09-06T04:07:02.319Z,5.3852
2022-09-06T04:12:03.973Z,14.68
2022-09-06T04:17:05.758Z,24.7126
2022-09-06T04:22:07.228Z,43.0626
2022-09-06T04:27:09.154Z,68.56815
2022-09-06T04:32:10.735Z,103.66325
2022-09-06T04:37:12.408Z,126.66065
2022-09-06T04:42:13.957Z,157.9013
2022-09-06T04:47:15.650Z,186.94755
2022-09-06T04:52:17.469Z,203.7668
2022-09-06T04:57:19.720Z,231.8908
2022-09-06T05:02:21.537Z,250.05635
2022-09-06T05:07:23.426Z,261.80415
2022-09-06T05:12:25.228Z,274.7138
2022-09-06T05:17:26.673Z,291.16415
2022-09-06T05:22:28.315Z,306.95085
2022-09-06T05:27:30.953Z,325.4853
2022-09-06T05:32:32.703Z,340.055
2022-09-06T05:37:34.237Z,352.24585
2022-09-06T05:42:35.697Z,392.9486
2022-09-06T05:47:37.136Z,443.46335
2022-09-06T05:52:38.697Z,503.5125
2022-09-06T05:57:40.379Z,566.549
2022-09-06T06:02:42.047Z,602.1803
2022-09-06T06:07:43.650Z,631.26455
2022-09-06T06:12:45.339Z,661.1969
2022-09-06T06:17:46.765Z,689.30375
2022-09-06T06:22:48.183Z,706.58505
2022-09-06T06:27:50.312Z,732.9767
2022-09-06T06:32:51.776Z,751.41985
2022-09-06T06:37:53.306Z,773.71745
2022-09-06T06:42:54.759Z,795.2221
2022-09-06T06:47:56.282Z,819.2349
2022-09-06T06:52:57.749Z,836.6455
2022-09-06T06:57:59.501Z,857.1176
2022-09-06T07:03:00.939Z,873.1819
2022-09-06T07:08:02.478Z,893.83845
2022-09-06T07:13:04.295Z,914.495
2022-09-06T07:18:05.993Z,934.04485
2022-09-06T07:28:40.203Z,990.9602
2022-09-06T07:33:42.155Z,1012.4287
2022-09-06T07:38:44.050Z,1035.4831
2022-09-06T07:43:46.190Z,1057.4308
2022-09-06T07:48:47.949Z,1089.0422
2022-09-06T07:53:50.524Z,1120.414
2022-09-06T07:58:52.913Z,1139.3192
2022-09-06T08:03:54.782Z,1161.94955
2022-09-06T08:13:58.199Z,1220.7094
2022-09-06T08:19:00.483Z,1234.9672
2022-09-06T08:24:01.897Z,1277.27485
2022-09-06T08:29:04.637Z,1320.13585
2022-09-06T08:34:06.056Z,1365.19125
2022-09-06T08:39:07.611Z,1393.5567
2022-09-06T08:49:41.344Z,1486.6187
2022-09-06T08:54:43.092Z,1514.37565
2022-09-06T08:59:45.793Z,1565.79365
2022-09-06T09:04:47.565Z,1597.9394
2022-09-06T09:09:49.463Z,1656.99215
2022-09-06T09:14:51.361Z,1689.6171
2022-09-06T09:19:53.107Z,1729.8958
2022-09-06T09:24:54.791Z,1757.339
2022-09-06T09:35:29.317Z,1823.53015
2022-09-06T09:40:30.972Z,1849.36845
2022-09-06T09:45:32.589Z,1891.49165
2022-09-06T09:50:34.030Z,1925.9611
2022-09-06T09:55:35.701Z,1988.3701
2022-09-06T10:00:38.770Z,2014.448
2022-09-06T10:05:40.368Z,2047.66245
2022-09-06T10:10:41.832Z,2082.42665
2022-09-06T10:15:43.419Z,2141.38625
2022-09-06T10:20:45.261Z,2211.61445
2022-09-06T10:25:49.161Z,2248.57305
2022-09-06T10:30:51.740Z,2285.53165
2022-09-06T10:35:53.207Z,2317.5481
2022-09-06T10:40:54.857Z,2375.0701
2022-09-06T10:45:56.647Z,2403.9319
2022-09-06T10:50:58.162Z,2456.2703
2022-09-06T10:56:01.481Z,2490.5173
2022-09-06T11:01:04.234Z,2553.18305
2022-09-06T11:06:05.665Z,2592.8704
2022-09-06T11:11:07.163Z,2624.5161
2022-09-06T11:16:08.864Z,2685.7804
2022-09-06T11:21:10.348Z,2691.0173
2022-09-06T11:26:11.971Z,2718.07075
2022-09-06T11:37:14.584Z,2779.05745
2022-09-06T11:42:16.470Z,2786.3043
2022-09-06T11:47:18.297Z,2787.5023
2022-09-06T11:52:20.035Z,2809.66875
2022-09-06T11:57:21.956Z,2818.5015
2022-09-06T12:02:24.228Z,2808.50505
2022-09-06T12:07:25.863Z,2822.64885
2022-09-06T12:12:27.673Z,2843.8189
2022-09-06T12:17:29.432Z,2864.12185
2022-09-06T12:22:31.186Z,2882.65445
2022-09-06T12:27:32.617Z,2893.97635
2022-09-06T12:32:37.039Z,2890.50795
2022-09-06T12:37:39.327Z,2869.79625
2022-09-06T12:42:41.067Z,2848.69665
2022-09-06T12:47:42.593Z,2840.0275
2022-09-06T12:52:44.361Z,2847.4398
2022-09-06T12:57:46.116Z,2818.83475
2022-09-06T13:02:49.199Z,2790.8382
2022-09-06T13:07:51.069Z,2766.14275
2022-09-06T13:12:52.955Z,2710.9996
2022-09-06T13:17:54.775Z,2665.3357
2022-09-06T13:22:56.479Z,2632.2677
2022-09-06T13:27:58.768Z,2590.6427
2022-09-06T13:33:01.532Z,2412.6382
2022-09-06T13:38:03.053Z,2261.5407
2022-09-06T13:43:04.595Z,2185.61355
2022-09-06T13:48:26.258Z,2205.88035
2022-09-06T13:53:31.144Z,2062.97095
2022-09-06T13:58:32.705Z,2070.27295
2022-09-06T14:03:35.407Z,1939.4251
2022-09-06T14:08:56.298Z,1880.5568
2022-09-06T14:14:07.103Z,1869.3985
2022-09-06T14:19:08.542Z,1792.23535
2022-09-06T14:24:10.047Z,1767.4486
2022-09-06T14:29:11.550Z,1680.5856
2022-09-06T14:34:14.495Z,1548.5759
2022-09-06T14:39:16.251Z,1418.96405
2022-09-06T14:44:17.987Z,1229.2859
2022-09-06T14:49:19.773Z,1205.10765
2022-09-06T14:54:24.086Z,1047.77685
2022-09-06T14:59:27.906Z,891.66305
2022-09-06T15:04:30.068Z,773.72485
2022-09-06T15:09:31.637Z,611.48805
2022-09-06T15:14:33.406Z,493.78945
2022-09-06T15:19:35.194Z,364.8774
2022-09-06T15:24:37.030Z,288.93875
2022-09-06T15:29:38.503Z,220.85185
2022-09-06T15:34:41.497Z,147.49125
2022-09-06T15:39:43.507Z,82.9603
2022-09-06T15:44:45.527Z,77.4959
2022-09-06T15:49:47.433Z,54.53465
2022-09-06T15:54:49.382Z,37.51195
2022-09-06T15:59:51.465Z,16.10045
2022-09-06T16:04:53.603Z,6.04425
2022-09-06T16:09:55.364Z,3.08135
2022-09-06T16:14:57.160Z,1.6592
2022-09-06T16:19:58.919Z,0.4148
2022-09-06T16:25:00.575Z,0
2022-09-06T16:30:02.265Z,0.88715
2022-09-06T16:35:03.934Z,0.88715
2022-09-06T16:40:05.681Z,0.88715
2022-09-06T16:45:07.306Z,0.88715
2022-09-06T16:50:09.018Z,0
2022-09-06T16:55:10.590Z,0.88715
2022-09-06T17:00:12.407Z,0
2022-09-06T17:05:14.197Z,0.88715
2022-09-06T17:10:16.016Z,0.88715
2022-09-06T17:15:17.554Z,0
2022-09-06T17:20:19.255Z,0.88715
2022-09-06T17:25:20.776Z,0.88715
2022-09-06T17:30:22.282Z,0.88715
2022-09-06T17:35:24.249Z,0.88715
2022-09-06T17:40:25.969Z,0.88715
2022-09-06T17:45:27.732Z,0.88715
2022-09-06T17:50:29.704Z,0.88715
2022-09-06T17:55:31.392Z,0.88715
2022-09-06T18:00:33.069Z,0.88715
2022-09-06T18:05:35.014Z,0.88715
2022-09-06T18:10:36.873Z,0.88715
2022-09-06T18:15:38.616Z,0.88715
2022-09-06T18:20:40.372Z,0.88715
2022-09-06T18:25:42.108Z,0.88715
2022-09-06T18:30:43.587Z,0.88715
2022-09-06T18:35:45.590Z,0.88715
2022-09-06T18:40:47.464Z,0
2022-09-06T18:45:49.470Z,0
2022-09-06T18:50:51.371Z,0
2022-09-06T18:55:53.022Z,0.88715
2022-09-06T19:00:54.868Z,0
2022-09-06T19:05:57.634Z,0.88715
2022-09-06T19:10:59.761Z,0.88715
2022-09-06T19:16:02.022Z,0
2022-09-06T19:21:04.238Z,0
2022-09-06T19:26:06.039Z,0.88715
2022-09-06T19:31:07.873Z,0
2022-09-06T19:36:11.859Z,0
2022-09-06T19:41:14.095Z,0
2022-09-06T19:46:15.863Z,0
2022-09-06T19:51:17.941Z,0.88715
2022-09-06T19:56:20.050Z,0.88715
2022-09-06T20:01:22.131Z,0
2022-09-06T20:06:29.112Z,0
2022-09-06T20:11:30.934Z,0
2022-09-06T20:16:32.809Z,0.88715
2022-09-06T20:21:34.631Z,0
2022-09-06T20:26:36.358Z,0.88715
2022-09-06T20:31:37.994Z,0
2022-09-06T20:36:39.888Z,0.88715
2022-09-06T20:41:41.309Z,0.88715
2022-09-06T20:46:42.804Z,0
2022-09-06T20:51:44.544Z,0.88715
2022-09-06T20:56:46.323Z,0
2022-09-06T21:01:48.162Z,0
2022-09-06T21:06:50.267Z,0
2022-09-06T21:11:52.346Z,0
2022-09-06T21:16:54.130Z,0.88715
2022-09-06T21:21:55.822Z,0.88715
2022-09-06T21:26:57.767Z,0
2022-09-06T21:31:59.891Z,0
2022-09-06T21:37:01.618Z,0.88715
2022-09-06T21:42:03.327Z,0
2022-09-06T21:47:04.668Z,0.88715
2022-09-06T21:52:06.173Z,0.88715
2022-09-06T21:57:07.603Z,0.88715
2022-09-06T22:02:09.289Z,0
2022-09-06T22:07:11.399Z,0.88715
2022-09-06T22:12:13.170Z,0
2022-09-06T22:17:14.943Z,0.88715
2022-09-06T22:22:16.871Z,0
2022-09-06T22:27:18.986Z,0.88715
2022-09-06T22:32:20.764Z,0.88715
2022-09-06T22:37:22.786Z,0
2022-09-06T22:42:24.539Z,0
2022-09-06T22:47:26.529Z,0
2022-09-06T22:52:28.463Z,0.88715
2022-09-06T22:57:30.419Z,0
2022-09-06T23:02:32.300Z,0.88715
2022-09-06T23:07:34.453Z,0
2022-09-06T23:12:36.141Z,0.88715
2022-09-06T23:17:37.896Z,0
2022-09-06T23:22:40.127Z,0
2022-09-06T23:27:41.964Z,0
2022-09-06T23:32:43.841Z,0
2022-09-06T23:37:45.825Z,0.88715
2022-09-06T23:42:47.823Z,0
2022-09-06T23:47:49.782Z,0.88715
2022-09-06T23:52:51.876Z,0
2022-09-06T23:57:53.657Z,0
